createdAt,value
2022-10-19T00:00:29.447Z,100557.25
2022-10-19T00:01:36.618Z,100562.81
2022-10-19T00:02:38.598Z,100558.09
2022-10-19T00:03:43.322Z,100563.47
2022-10-19T00:04:45.087Z,100552.84
2022-10-19T00:05:49.472Z,100556.47
2022-10-19T00:06:51.221Z,100554.22
2022-10-19T00:07:55.758Z,100554.84
2022-10-19T00:08:58.422Z,100553.59
2022-10-19T00:10:02.799Z,100555.72
2022-10-19T00:11:04.550Z,100557.22
2022-10-19T00:12:08.910Z,100560.47
2022-10-19T00:13:10.771Z,100558.19
2022-10-19T00:14:16.820Z,100563.22
2022-10-19T00:15:18.548Z,100556.47
2022-10-19T00:16:23.192Z,100559.56
2022-10-19T00:17:24.947Z,100562.75
2022-10-19T00:18:29.334Z,100560.63
2022-10-19T00:19:34.079Z,100568.84
2022-10-19T00:20:36.335Z,100566.38
2022-10-19T00:21:40.937Z,100566.69
2022-10-19T00:22:42.761Z,100568.63
2022-10-19T00:23:47.151Z,100566.47
2022-10-19T00:24:48.906Z,100561.31
2022-10-19T00:25:59.778Z,100565.25
2022-10-19T00:27:01.651Z,100572.72
2022-10-19T00:28:06.057Z,100569.50
2022-10-19T00:29:07.923Z,100572.50
2022-10-19T00:30:12.360Z,100566.38
2022-10-19T00:31:15.877Z,100567.63
2022-10-19T00:32:20.513Z,100572.31
2022-10-19T00:33:22.924Z,100562.78
2022-10-19T00:34:27.258Z,100563.06
2022-10-19T00:35:29.022Z,100569.34
2022-10-19T00:36:35.282Z,100564.41
2022-10-19T00:37:37.042Z,100571.38
2022-10-19T00:38:41.957Z,100567.38
2022-10-19T00:39:43.881Z,100570.56
2022-10-19T00:40:48.309Z,100572.38
2022-10-19T00:41:52.632Z,100569.13
2022-10-19T00:42:55.365Z,100568.84
2022-10-19T00:43:59.771Z,100570.75
2022-10-19T00:45:03.158Z,100564.28
2022-10-19T00:46:08.218Z,100571.53
2022-10-19T00:47:10.083Z,100564.66
2022-10-19T00:48:15.510Z,100566.69
2022-10-19T00:49:20.958Z,100572.03
2022-10-19T00:50:26.640Z,100567.72
2022-10-19T00:51:28.563Z,100573.16
2022-10-19T00:52:33.333Z,100566.19
2022-10-19T00:53:35.356Z,100566.97
2022-10-19T00:54:40.881Z,100565.34
2022-10-19T00:55:42.665Z,100570.56
2022-10-19T00:56:47.447Z,100567.91
2022-10-19T00:59:16.779Z,100564.88
2022-10-19T01:00:18.597Z,100561.44
2022-10-19T01:01:23.365Z,100561.03
2022-10-19T01:02:25.215Z,100552.81
2022-10-19T01:03:29.550Z,100551.88
2022-10-19T01:04:31.431Z,100559.69
2022-10-19T01:05:36.189Z,100556.81
2022-10-19T01:06:38.005Z,100551.25
2022-10-19T01:07:42.379Z,100554.69
2022-10-19T01:08:44.197Z,100546.59
2022-10-19T01:09:48.757Z,100546.59
2022-10-19T01:11:02.858Z,100549.16
2022-10-19T01:12:26.195Z,100534.84
2022-10-19T01:13:37.110Z,100539.03
2022-10-19T01:14:38.797Z,100543.50
2022-10-19T01:15:49.830Z,100541.69
2022-10-19T01:17:00.258Z,100538.28
2022-10-19T01:18:09.938Z,100526.84
2022-10-19T01:19:17.346Z,100539.78
2022-10-19T01:20:40.547Z,100536.16
2022-10-19T01:21:46.703Z,100527.38
2022-10-19T01:22:55.470Z,100530.81
2022-10-19T01:24:18.508Z,100529.84
2022-10-19T01:25:24.946Z,100540.25
2022-10-19T01:26:38.301Z,100532.88
2022-10-19T01:27:44.705Z,100537.25
2022-10-19T01:28:54.342Z,100531.75
2022-10-19T01:29:58.791Z,100527.25
2022-10-19T01:31:03.120Z,100526.41
2022-10-19T01:32:04.811Z,100522.78
2022-10-19T01:33:16.255Z,100524.50
2022-10-19T01:34:33.056Z,100530.50
2022-10-19T01:35:54.373Z,100526.97
2022-10-19T01:36:56.099Z,100520.88
2022-10-19T01:38:22.469Z,100509.50
2022-10-19T01:39:24.220Z,100512.09
2022-10-19T01:40:43.530Z,100514.00
2022-10-19T01:41:53.376Z,100526.66
2022-10-19T01:43:01.181Z,100519.72
2022-10-19T01:44:12.487Z,100519.91
2022-10-19T01:45:15.711Z,100512.66
2022-10-19T01:46:24.866Z,100525.06
2022-10-19T01:47:27.199Z,100520.59
2022-10-19T01:48:32.094Z,100512.56
2022-10-19T01:49:36.975Z,100524.09
2022-10-19T01:50:43.516Z,100524.31
2022-10-19T01:51:49.093Z,100523.25
2022-10-19T01:52:51.196Z,100510.84
2022-10-19T01:53:56.317Z,100506.13
2022-10-19T01:54:59.858Z,100512.28
2022-10-19T01:56:04.191Z,100501.59
2022-10-19T01:57:06.563Z,100503.31
2022-10-19T01:58:11.454Z,100501.59
2022-10-19T01:59:13.218Z,100504.25
2022-10-19T02:00:17.789Z,100503.47
2022-10-19T02:01:19.949Z,100510.53
2022-10-19T02:02:27.074Z,100497.47
2022-10-19T02:03:28.830Z,100499.19
2022-10-19T02:04:33.182Z,100501.13
2022-10-19T02:05:34.942Z,100499.41
2022-10-19T02:06:39.269Z,100498.72
2022-10-19T02:07:41.595Z,100483.13
2022-10-19T02:08:50.267Z,100498.38
2022-10-19T02:09:52.055Z,100493.81
2022-10-19T02:10:56.381Z,100502.34
2022-10-19T02:11:59.856Z,100495.28
2022-10-19T02:13:04.209Z,100495.97
2022-10-19T02:14:07.195Z,100492.53
2022-10-19T02:15:15.447Z,100499.69
2022-10-19T02:16:22.274Z,100494.34
2022-10-19T02:17:30.497Z,100490.03
2022-10-19T02:18:36.235Z,100500.88
2022-10-19T02:19:40.558Z,100500.88
2022-10-19T02:20:42.394Z,100493.56
2022-10-19T02:21:46.766Z,100498.06
2022-10-19T02:22:48.529Z,100494.44
2022-10-19T02:23:54.241Z,100500.88
2022-10-19T02:24:56.312Z,100495.28
2022-10-19T02:26:00.661Z,100491.66
2022-10-19T02:27:04.952Z,100495.09
2022-10-19T02:28:09.507Z,100495.28
2022-10-19T02:29:11.260Z,100499.69
2022-10-19T02:30:16.260Z,100488.78
2022-10-19T02:31:18.116Z,100493.19
2022-10-19T02:32:22.480Z,100495.88
2022-10-19T02:33:24.255Z,100495.09
2022-10-19T02:34:28.695Z,100496.06
2022-10-19T02:35:30.483Z,100487.28
2022-10-19T02:36:34.887Z,100485.78
2022-10-19T02:38:40.943Z,100489.59
2022-10-19T02:39:43.313Z,100485.88
2022-10-19T02:40:48.469Z,100479.69
2022-10-19T02:41:52.379Z,100485.31
2022-10-19T02:43:01.500Z,100478.34
2022-10-19T02:44:08.281Z,100484.78
2022-10-19T02:45:21.467Z,100482.38
2022-10-19T02:46:23.179Z,100479.16
2022-10-19T02:47:38.647Z,100485.66
2022-10-19T02:48:40.383Z,100483.38
2022-10-19T02:49:44.766Z,100484.44
2022-10-19T02:50:47.851Z,100499.81
2022-10-19T02:52:06.089Z,100487.41
2022-10-19T02:53:07.822Z,100491.22
2022-10-19T02:54:12.205Z,100482.66
2022-10-19T02:55:13.994Z,100479.41
2022-10-19T02:56:18.330Z,100489.34
2022-10-19T02:57:23.589Z,100490.28
2022-10-19T02:58:27.925Z,100487.06
2022-10-19T02:59:30.193Z,100489.06
2022-10-19T03:00:34.695Z,100480.00
2022-10-19T03:01:36.490Z,100480.88
2022-10-19T03:02:40.838Z,100484.59
2022-10-19T03:03:42.594Z,100476.94
2022-10-19T03:05:49.763Z,100481.41
2022-10-19T03:06:54.086Z,100480.56
2022-10-19T03:07:55.826Z,100484.22
2022-10-19T03:09:00.259Z,100482.50
2022-10-19T03:10:02.024Z,100482.69
2022-10-19T03:11:06.433Z,100488.88
2022-10-19T03:12:08.289Z,100491.63
2022-10-19T03:13:12.651Z,100480.00
2022-10-19T03:14:14.463Z,100488.03
2022-10-19T03:15:19.363Z,100481.81
2022-10-19T03:16:21.110Z,100487.06
2022-10-19T03:17:25.439Z,100479.25
2022-10-19T03:18:27.195Z,100477.53
2022-10-19T03:19:31.692Z,100480.19
2022-10-19T03:20:33.524Z,100477.53
2022-10-19T03:21:37.942Z,100479.25
2022-10-19T03:22:39.805Z,100476.66
2022-10-19T03:23:44.424Z,100477.53
2022-10-19T03:24:46.208Z,100475.63
2022-10-19T03:25:50.672Z,100478.28
2022-10-19T03:26:52.547Z,100477.53
2022-10-19T03:27:56.890Z,100477.34
2022-10-19T03:28:58.686Z,100475.34
2022-10-19T03:30:03.062Z,100477.16
2022-10-19T03:31:04.864Z,100473.72
2022-10-19T03:32:09.290Z,100476.22
2022-10-19T03:33:11.020Z,100475.44
2022-10-19T03:34:15.359Z,100474.28
2022-10-19T03:35:17.252Z,100461.59
2022-10-19T03:36:28.655Z,100458.84
2022-10-19T03:37:30.397Z,100473.72
2022-10-19T03:38:34.723Z,100467.19
2022-10-19T03:39:36.472Z,100469.09
2022-10-19T03:40:40.814Z,100463.59
2022-10-19T03:41:42.859Z,100467.00
2022-10-19T03:42:47.184Z,100469.69
2022-10-19T03:43:49.029Z,100455.09
2022-10-19T03:44:54.019Z,100459.59
2022-10-19T03:45:56.027Z,100463.97
2022-10-19T03:47:00.376Z,100456.69
2022-10-19T03:48:02.110Z,100452.53
2022-10-19T03:49:07.018Z,100458.31
2022-10-19T03:50:11.344Z,100459.16
2022-10-19T03:51:17.283Z,100451.06
2022-10-19T03:52:19.129Z,100453.63
2022-10-19T03:53:23.538Z,100457.25
2022-10-19T03:54:27.412Z,100453.31
2022-10-19T03:55:32.880Z,100455.91
2022-10-19T03:56:35.297Z,100444.47
2022-10-19T03:57:40.047Z,100449.59
2022-10-19T03:58:42.150Z,100453.03
2022-10-19T03:59:46.560Z,100471.19
2022-10-19T04:00:48.369Z,100457.63
2022-10-19T04:01:52.702Z,100453.03
2022-10-19T04:02:54.443Z,100454.75
2022-10-19T04:03:59.861Z,100459.03
2022-10-19T04:05:04.210Z,100452.84
2022-10-19T04:06:06.813Z,100454.56
2022-10-19T04:07:11.160Z,100454.56
2022-10-19T04:08:12.947Z,100456.28
2022-10-19T04:09:19.702Z,100452.66
2022-10-19T04:10:21.496Z,100443.88
2022-10-19T04:11:27.102Z,100453.50
2022-10-19T04:12:28.934Z,100445.59
2022-10-19T04:13:33.741Z,100456.06
2022-10-19T04:14:52.639Z,100445.59
2022-10-19T04:15:59.879Z,100459.50
2022-10-19T04:17:02.096Z,100453.38
2022-10-19T04:18:06.499Z,100453.94
2022-10-19T04:19:08.671Z,100445.19
2022-10-19T04:20:13.185Z,100458.44
2022-10-19T04:23:32.043Z,100451.56
2022-10-19T04:24:33.853Z,100449.97
2022-10-19T04:25:38.236Z,100446.22
2022-10-19T04:26:41.667Z,100447.94
2022-10-19T04:27:46.038Z,100454.25
2022-10-19T04:28:48.013Z,100452.22
2022-10-19T04:29:52.525Z,100450.31
2022-10-19T04:30:54.297Z,100445.19
2022-10-19T04:31:58.636Z,100448.72
2022-10-19T04:33:00.378Z,100450.13
2022-10-19T04:34:04.716Z,100443.16
2022-10-19T04:35:06.974Z,100436.41
2022-10-19T04:36:12.202Z,100440.25
2022-10-19T04:37:13.983Z,100439.06
2022-10-19T04:38:18.310Z,100431.06
2022-10-19T04:39:20.107Z,100446.88
2022-10-19T04:40:24.466Z,100448.81
2022-10-19T04:41:26.225Z,100436.41
2022-10-19T04:42:30.646Z,100441.53
2022-10-19T04:43:32.441Z,100443.47
2022-10-19T04:44:36.814Z,100437.25
2022-10-19T04:45:38.622Z,100438.34
2022-10-19T04:46:43.044Z,100436.81
2022-10-19T04:47:44.790Z,100427.66
2022-10-19T04:48:49.666Z,100430.31
2022-10-19T04:49:51.421Z,100430.09
2022-10-19T04:50:57.262Z,100430.00
2022-10-19T04:52:01.675Z,100422.31
2022-10-19T04:53:03.599Z,100425.06
2022-10-19T04:54:07.936Z,100417.53
2022-10-19T04:55:09.752Z,100423.56
2022-10-19T04:56:15.362Z,100429.28
2022-10-19T04:57:17.144Z,100422.69
2022-10-19T04:58:21.637Z,100432.44
2022-10-19T04:59:23.435Z,100422.50
2022-10-19T05:00:27.753Z,100427.84
2022-10-19T05:01:30.103Z,100429.94
2022-10-19T05:02:34.501Z,100430.63
2022-10-19T05:03:36.259Z,100427.66
2022-10-19T05:04:43.079Z,100433.19
2022-10-19T05:05:47.366Z,100429.56
2022-10-19T05:06:51.687Z,100435.84
2022-10-19T05:07:53.548Z,100418.22
2022-10-19T05:08:58.912Z,100429.09
2022-10-19T05:10:00.682Z,100430.91
2022-10-19T05:11:05.622Z,100427.84
2022-10-19T05:12:10.023Z,100427.94
2022-10-19T05:13:11.806Z,100425.19
2022-10-19T05:14:16.176Z,100439.59
2022-10-19T05:15:18.139Z,100429.00
2022-10-19T05:16:23.658Z,100429.75
2022-10-19T05:17:25.407Z,100422.25
2022-10-19T05:18:29.974Z,100434.63
2022-10-19T05:19:31.752Z,100437.59
2022-10-19T05:20:36.081Z,100438.66
2022-10-19T05:21:40.486Z,100443.16
2022-10-19T05:22:42.299Z,100432.66
2022-10-19T05:23:46.777Z,100438.22
2022-10-19T05:24:48.526Z,100438.22
2022-10-19T05:25:52.955Z,100436.50
2022-10-19T05:26:57.332Z,100434.19
2022-10-19T05:27:59.071Z,100439.44
2022-10-19T05:29:04.806Z,100438.31
2022-10-19T05:30:08.414Z,100433.06
2022-10-19T05:31:13.694Z,100433.06
2022-10-19T05:32:15.471Z,100434.78
2022-10-19T05:33:19.962Z,100435.72
2022-10-19T05:34:24.371Z,100438.94
2022-10-19T05:35:26.791Z,100439.72
2022-10-19T05:36:34.621Z,100436.66
2022-10-19T05:37:36.943Z,100439.31
2022-10-19T05:38:41.709Z,100442.75
2022-10-19T05:39:46.308Z,100448.97
2022-10-19T05:40:53.614Z,100441.50
2022-10-19T05:41:58.207Z,100446.53
2022-10-19T05:42:59.999Z,100445.38
2022-10-19T05:44:05.149Z,100446.22
2022-10-19T05:45:07.387Z,100447.31
2022-10-19T05:46:12.821Z,100452.22
2022-10-19T05:47:14.667Z,100443.84
2022-10-19T05:48:19.086Z,100443.69
2022-10-19T05:49:24.224Z,100434.28
2022-10-19T05:50:31.105Z,100442.66
2022-10-19T05:51:35.643Z,100440.75
2022-10-19T05:52:37.460Z,100428.94
2022-10-19T05:53:42.479Z,100444.16
2022-10-19T05:54:44.514Z,100444.38
2022-10-19T05:55:48.888Z,100442.25
2022-10-19T05:56:53.267Z,100431.16
2022-10-19T05:57:55.027Z,100442.19
2022-10-19T05:59:00.896Z,100443.16
2022-10-19T06:00:03.999Z,100440.25
2022-10-19T06:01:18.944Z,100433.94
2022-10-19T06:02:20.810Z,100444.66
2022-10-19T06:03:25.168Z,100446.56
2022-10-19T06:04:29.585Z,100444.66
2022-10-19T06:05:31.402Z,100439.91
2022-10-19T06:06:35.978Z,100436.47
2022-10-19T06:07:37.766Z,100435.94
2022-10-19T06:08:42.242Z,100446.00
2022-10-19T06:09:45.811Z,100449.44
2022-10-19T06:10:50.314Z,100448.78
2022-10-19T06:11:54.705Z,100435.50
2022-10-19T06:12:56.423Z,100442.75
2022-10-19T06:14:02.531Z,100455.56
2022-10-19T06:15:04.447Z,100448.91
2022-10-19T06:16:09.411Z,100441.06
2022-10-19T06:17:11.303Z,100453.84
2022-10-19T06:18:15.830Z,100448.50
2022-10-19T06:19:20.211Z,100454.31
2022-10-19T06:20:21.984Z,100448.69
2022-10-19T06:21:27.557Z,100444.00
2022-10-19T06:22:29.853Z,100448.91
2022-10-19T06:23:35.024Z,100453.63
2022-10-19T06:24:39.402Z,100453.25
2022-10-19T06:25:41.349Z,100446.09
2022-10-19T06:26:45.691Z,100446.84
2022-10-19T06:27:47.660Z,100451.88
2022-10-19T06:28:52.318Z,100447.09
2022-10-19T06:29:54.159Z,100446.13
2022-10-19T06:31:00.077Z,100440.03
2022-10-19T06:32:04.449Z,100448.16
2022-10-19T06:33:06.441Z,100449.88
2022-10-19T06:34:10.897Z,100454.34
2022-10-19T06:35:12.674Z,100450.06
2022-10-19T06:36:21.448Z,100443.69
2022-10-19T06:37:23.287Z,100437.28
2022-10-19T06:38:27.613Z,100435.34
2022-10-19T06:39:29.403Z,100446.91
2022-10-19T06:40:33.817Z,100442.81
2022-10-19T06:41:35.687Z,100436.44
2022-10-19T06:42:55.586Z,100445.81
2022-10-19T06:43:57.388Z,100443.91
2022-10-19T06:45:01.807Z,100446.47
2022-10-19T06:46:04.321Z,100448.41
2022-10-19T06:47:08.630Z,100444.09
2022-10-19T06:48:13.006Z,100440.91
2022-10-19T06:49:17.586Z,100448.63
2022-10-19T06:50:20.495Z,100437.94
2022-10-19T06:51:25.502Z,100447.41
2022-10-19T06:52:27.337Z,100445.66
2022-10-19T06:53:34.434Z,100454.97
2022-10-19T06:54:38.833Z,100452.84
2022-10-19T06:55:40.647Z,100461.81
2022-10-19T06:56:45.066Z,100461.81
2022-10-19T06:57:46.827Z,100466.56
2022-10-19T06:58:51.153Z,100464.66
2022-10-19T06:59:53.784Z,100452.44
2022-10-19T07:00:59.277Z,100461.63
2022-10-19T07:02:03.653Z,100477.47
2022-10-19T07:03:05.455Z,100461.66
2022-10-19T07:04:09.782Z,100472.38
2022-10-19T07:05:11.539Z,100474.09
2022-10-19T07:06:15.936Z,100482.09
2022-10-19T07:07:18.212Z,100465.53
2022-10-19T07:08:22.743Z,100460.16
2022-10-19T07:09:27.086Z,100459.84
2022-10-19T07:10:29.699Z,100472.38
2022-10-19T07:11:34.118Z,100477.72
2022-10-19T07:12:35.853Z,100474.09
2022-10-19T07:13:40.238Z,100464.91
2022-10-19T07:14:41.982Z,100463.28
2022-10-19T07:15:47.105Z,100470.25
2022-10-19T07:16:52.505Z,100465.75
2022-10-19T07:17:54.293Z,100470.44
2022-10-19T07:18:59.090Z,100482.19
2022-10-19T07:20:00.839Z,100473.41
2022-10-19T07:21:05.953Z,100481.97
2022-10-19T07:22:07.796Z,100490.06
2022-10-19T07:23:12.159Z,100484.09
2022-10-19T07:24:16.515Z,100487.75
2022-10-19T07:25:18.318Z,100496.13
2022-10-19T07:26:27.948Z,100494.19
2022-10-19T07:27:31.874Z,100490.91
2022-10-19T07:28:39.690Z,100495.09
2022-10-19T07:29:41.547Z,100500.31
2022-10-19T07:30:45.885Z,100494.84
2022-10-19T07:31:47.644Z,100495.28
2022-10-19T07:32:52.093Z,100497.41
2022-10-19T07:33:59.881Z,100506.63
2022-10-19T07:35:04.235Z,100505.63
2022-10-19T07:36:08.400Z,100512.41
2022-10-19T07:37:12.790Z,100509.72
2022-10-19T07:38:14.607Z,100512.00
2022-10-19T07:39:19.714Z,100511.78
2022-10-19T07:40:21.536Z,100515.22
2022-10-19T07:41:26.553Z,100504.94
2022-10-19T07:42:30.498Z,100508.72
2022-10-19T07:43:34.955Z,100508.63
2022-10-19T07:44:36.843Z,100513.41
2022-10-19T07:45:41.178Z,100522.31
2022-10-19T07:46:45.562Z,100513.13
2022-10-19T07:47:47.316Z,100522.72
2022-10-19T07:48:51.759Z,100525.66
2022-10-19T07:49:53.524Z,100521.97
2022-10-19T07:50:57.869Z,100529.69
2022-10-19T07:52:02.326Z,100521.38
2022-10-19T07:53:05.368Z,100522.56
2022-10-19T07:54:09.733Z,100531.06
2022-10-19T07:55:11.527Z,100528.09
2022-10-19T07:56:20.650Z,100535.38
2022-10-19T07:57:25.113Z,100522.44
2022-10-19T07:58:26.924Z,100538.50
2022-10-19T07:59:31.386Z,100544.31
2022-10-19T08:00:36.016Z,100553.00
2022-10-19T08:01:44.828Z,100545.78
2022-10-19T08:02:57.770Z,100559.13
2022-10-19T08:04:55.477Z,100569.63
2022-10-19T08:05:35.973Z,100561.72
2022-10-19T08:06:40.353Z,100579.31
2022-10-19T08:07:46.624Z,100583.38
2022-10-19T08:08:48.884Z,100571.69
2022-10-19T08:09:54.313Z,100575.88
2022-10-19T08:10:59.123Z,100583.56
2022-10-19T08:12:03.500Z,100578.22
2022-10-19T08:13:07.860Z,100576.63
2022-10-19T08:14:12.257Z,100582.00
2022-10-19T08:15:16.665Z,100590.03
2022-10-19T08:16:28.694Z,100588.50
2022-10-19T08:17:33.189Z,100584.97
2022-10-19T08:18:36.166Z,100566.75
2022-10-19T08:19:43.511Z,100583.81
2022-10-19T08:20:48.122Z,100575.22
2022-10-19T08:21:52.694Z,100575.44
2022-10-19T08:22:59.027Z,100566.22
2022-10-19T08:24:03.642Z,100575.44
2022-10-19T08:25:08.821Z,100569.13
2022-10-19T08:26:10.583Z,100569.31
2022-10-19T08:27:14.938Z,100570.06
2022-10-19T08:28:16.758Z,100566.53
2022-10-19T08:29:21.981Z,100568.78
2022-10-19T08:30:23.735Z,100562.69
2022-10-19T08:31:28.165Z,100558.78
2022-10-19T08:32:32.840Z,100559.34
2022-10-19T08:33:37.467Z,100553.53
2022-10-19T08:34:41.995Z,100567.09
2022-10-19T08:35:43.750Z,100574.78
2022-10-19T08:36:48.409Z,100566.13
2022-10-19T08:37:53.364Z,100566.75
2022-10-19T08:38:58.090Z,100567.72
2022-10-19T08:39:59.927Z,100565.16
2022-10-19T08:41:14.471Z,100568.03
2022-10-19T08:42:31.893Z,100566.41
2022-10-19T08:43:34.992Z,100568.19
2022-10-19T08:44:58.473Z,100567.44
2022-10-19T08:46:08.910Z,100559.47
2022-10-19T08:47:18.656Z,100569.25
2022-10-19T08:48:33.602Z,100574.50
2022-10-19T08:49:38.180Z,100572.53
2022-10-19T08:50:43.715Z,100568.88
2022-10-19T08:51:48.054Z,100566.50
2022-10-19T08:52:55.226Z,100572.75
2022-10-19T08:54:00.487Z,100572.75
2022-10-19T08:55:15.124Z,100583.56
2022-10-19T08:56:45.879Z,100592.09
2022-10-19T08:58:08.198Z,100589.28
2022-10-19T08:59:17.315Z,100589.03
2022-10-19T09:00:43.438Z,100580.03
2022-10-19T09:01:52.504Z,100599.56
2022-10-19T09:02:56.878Z,100594.94
2022-10-19T09:04:13.308Z,100591.44
2022-10-19T09:05:23.604Z,100597.47
2022-10-19T09:06:32.373Z,100609.94
2022-10-19T09:07:36.975Z,100604.56
2022-10-19T09:08:41.475Z,100609.84
2022-10-19T09:09:48.025Z,100612.94
2022-10-19T09:10:51.067Z,100616.59
2022-10-19T09:11:55.961Z,100608.44
2022-10-19T09:13:01.526Z,100619.81
2022-10-19T09:14:08.346Z,100612.06
2022-10-19T09:15:13.871Z,100607.84
2022-10-19T09:16:19.181Z,100610.28
2022-10-19T09:17:21.026Z,100602.03
2022-10-19T09:18:28.438Z,100601.56
2022-10-19T09:19:32.216Z,100615.88
2022-10-19T09:20:38.218Z,100613.81
2022-10-19T09:21:47.261Z,100615.88
2022-10-19T09:23:06.694Z,100629.41
2022-10-19T09:24:30.409Z,100623.88
2022-10-19T09:25:34.796Z,100617.56
2022-10-19T09:26:40.018Z,100620.81
2022-10-19T09:27:41.880Z,100626.13
2022-10-19T09:28:48.589Z,100629.25
2022-10-19T09:29:54.303Z,100622.69
2022-10-19T09:30:56.094Z,100624.25
2022-10-19T09:32:01.519Z,100633.53
2022-10-19T09:33:03.437Z,100622.50
2022-10-19T09:34:13.960Z,100659.06
2022-10-19T09:35:23.466Z,100634.06
2022-10-19T09:36:33.251Z,100625.41
2022-10-19T09:37:53.206Z,100619.56
2022-10-19T09:38:57.545Z,100616.81
2022-10-19T09:40:02.007Z,100619.16
2022-10-19T09:41:17.462Z,100610.84
2022-10-19T09:42:30.299Z,100624.34
2022-10-19T09:43:32.118Z,100615.41
2022-10-19T09:44:36.595Z,100624.50
2022-10-19T09:45:43.417Z,100612.00
2022-10-19T09:46:52.106Z,100609.16
2022-10-19T09:48:02.206Z,100611.28
2022-10-19T09:49:11.363Z,100618.78
2022-10-19T09:50:17.669Z,100616.38
2022-10-19T09:51:22.477Z,100621.25
2022-10-19T09:52:32.547Z,100636.56
2022-10-19T09:53:37.273Z,100635.31
2022-10-19T09:54:39.067Z,100641.66
2022-10-19T09:55:46.589Z,100639.81
2022-10-19T09:56:52.763Z,100646.38
2022-10-19T09:58:06.238Z,100636.97
2022-10-19T09:59:11.677Z,100645.94
2022-10-19T10:00:23.340Z,100649.00
2022-10-19T10:01:41.601Z,100644.97
2022-10-19T10:02:49.054Z,100654.75
2022-10-19T10:03:55.877Z,100660.66
2022-10-19T10:05:03.849Z,100629.72
2022-10-19T10:06:12.477Z,100638.69
2022-10-19T10:07:15.555Z,100628.03
2022-10-19T10:08:21.245Z,100621.16
2022-10-19T10:09:24.017Z,100597.09
2022-10-19T10:10:32.540Z,100610.28
2022-10-19T10:11:38.115Z,100619.81
2022-10-19T10:12:40.118Z,100609.31
2022-10-19T10:13:45.771Z,100602.09
2022-10-19T10:14:50.319Z,100611.81
2022-10-19T10:15:58.433Z,100615.69
2022-10-19T10:17:05.854Z,100600.72
2022-10-19T10:18:12.343Z,100598.91
2022-10-19T10:19:16.985Z,100590.72
2022-10-19T10:20:21.687Z,100573.25
2022-10-19T10:21:32.215Z,100573.53
2022-10-19T10:22:35.883Z,100572.31
2022-10-19T10:23:40.523Z,100576.69
2022-10-19T10:24:42.909Z,100570.50
2022-10-19T10:25:47.300Z,100562.47
2022-10-19T10:26:53.692Z,100561.16
2022-10-19T10:27:59.651Z,100568.88
2022-10-19T10:29:04.017Z,100566.09
2022-10-19T10:30:09.959Z,100566.97
2022-10-19T10:31:14.298Z,100570.56
2022-10-19T10:32:16.862Z,100570.56
2022-10-19T10:33:40.735Z,100570.41
2022-10-19T10:35:06.535Z,100570.22
2022-10-19T10:36:11.220Z,100567.13
2022-10-19T10:37:16.689Z,100571.81
2022-10-19T10:38:21.355Z,100562.94
2022-10-19T10:39:24.830Z,100572.66
2022-10-19T10:40:31.152Z,100563.78
2022-10-19T10:41:41.837Z,100562.94
2022-10-19T10:42:44.370Z,100570.41
2022-10-19T10:45:20.697Z,100572.31
2022-10-19T10:46:23.207Z,100559.72
2022-10-19T10:47:27.605Z,100570.00
2022-10-19T10:48:33.610Z,100569.63
2022-10-19T10:49:36.331Z,100562.91
2022-10-19T10:50:40.775Z,100562.03
2022-10-19T10:51:50.717Z,100564.00
2022-10-19T10:52:56.888Z,100552.53
2022-10-19T10:54:20.152Z,100563.47
2022-10-19T10:55:21.891Z,100553.03
2022-10-19T10:56:26.229Z,100552.63
2022-10-19T10:57:33.379Z,100552.22
2022-10-19T10:58:37.858Z,100541.84
2022-10-19T11:00:03.762Z,100545.81
2022-10-19T11:01:07.674Z,100543.69
2022-10-19T11:03:51.182Z,100534.28
2022-10-19T11:04:57.370Z,100533.41
2022-10-19T11:05:59.765Z,100543.25
2022-10-19T11:07:04.942Z,100544.56
2022-10-19T11:08:15.114Z,100531.28
2022-10-19T11:09:39.001Z,100538.66
2022-10-19T11:10:44.377Z,100535.34
2022-10-19T11:11:48.930Z,100538.13
2022-10-19T11:13:01.895Z,100541.00
2022-10-19T11:14:24.873Z,100535.75
2022-10-19T11:15:31.070Z,100543.56
2022-10-19T11:16:34.179Z,100537.06
2022-10-19T11:17:39.584Z,100541.56
2022-10-19T11:18:47.479Z,100544.75
2022-10-19T11:19:53.730Z,100544.09
2022-10-19T11:21:00.362Z,100533.66
2022-10-19T11:22:25.036Z,100548.50
2022-10-19T11:23:43.474Z,100534.63
2022-10-19T11:24:47.920Z,100549.84
2022-10-19T11:25:57.188Z,100551.97
2022-10-19T11:27:30.949Z,100565.34
2022-10-19T11:28:35.731Z,100554.66
2022-10-19T11:29:44.265Z,100566.75
2022-10-19T11:30:55.883Z,100557.41
2022-10-19T11:32:00.505Z,100574.53
2022-10-19T11:33:11.443Z,100563.34
2022-10-19T11:34:34.450Z,100547.38
2022-10-19T11:35:55.555Z,100564.97
2022-10-19T11:37:03.054Z,100547.38
2022-10-19T11:38:20.237Z,100554.88
2022-10-19T11:39:45.094Z,100567.72
2022-10-19T11:42:20.063Z,100569.22
2022-10-19T11:43:27.114Z,100561.25
2022-10-19T11:44:43.607Z,100577.22
2022-10-19T11:45:45.383Z,100576.28
2022-10-19T11:47:08.620Z,100555.69
2022-10-19T11:48:10.422Z,100556.53
2022-10-19T11:49:17.813Z,100571.78
2022-10-19T11:50:44.095Z,100569.00
2022-10-19T11:51:57.464Z,100557.91
2022-10-19T11:53:05.341Z,100578.09
2022-10-19T11:54:15.047Z,100571.94
2022-10-19T11:55:25.483Z,100592.53
2022-10-19T11:56:39.156Z,100577.78
2022-10-19T11:57:52.536Z,100585.72
2022-10-19T11:59:09.192Z,100590.44
2022-10-19T12:00:20.919Z,100590.69
2022-10-19T12:01:56.502Z,100612.06
2022-10-19T12:03:05.637Z,100603.28
2022-10-19T12:04:22.960Z,100603.84
2022-10-19T12:05:27.918Z,100625.63
2022-10-19T12:06:48.391Z,100626.25
2022-10-19T12:07:55.463Z,100628.00
2022-10-19T12:09:06.208Z,100648.44
2022-10-19T12:10:14.843Z,100640.81
2022-10-19T12:11:16.935Z,100658.81
2022-10-19T12:12:24.755Z,100657.94
2022-10-19T12:13:31.644Z,100649.69
2022-10-19T12:14:36.161Z,100652.16
2022-10-19T12:15:45.414Z,100681.09
2022-10-19T12:16:57.624Z,100663.50
2022-10-19T12:18:03.885Z,100658.59
2022-10-19T12:19:06.069Z,100656.47
2022-10-19T12:20:22.057Z,100659.69
2022-10-19T12:21:44.940Z,100663.88
2022-10-19T12:22:46.803Z,100665.66
2022-10-19T12:23:51.166Z,100667.75
2022-10-19T12:24:55.440Z,100668.50
2022-10-19T12:26:00.301Z,100671.41
2022-10-19T12:27:02.245Z,100670.41
2022-10-19T12:28:06.662Z,100665.28
2022-10-19T12:29:30.566Z,100668.94
2022-10-19T12:30:34.883Z,100672.69
2022-10-19T12:31:36.741Z,100664.19
2022-10-19T12:32:43.343Z,100666.88
2022-10-19T12:34:06.549Z,100677.50
2022-10-19T12:36:58.382Z,100686.22
2022-10-19T12:38:04.287Z,100704.91
2022-10-19T12:39:15.066Z,100696.34
2022-10-19T12:40:24.698Z,100690.66
2022-10-19T12:41:52.280Z,100693.38
2022-10-19T12:42:54.450Z,100702.13
2022-10-19T12:44:01.621Z,100695.03